»·PEaware :: SWA1296 KSFO-KPDX

SWA1296 :: KSFO-KPDX

FLIGHT INFORMATION

Flight Status: Arrived
Operator:
Southwest Airlines
More flights by this operator :: More flights under this callsign
Pilot: Peter N. (19445)
Aircraft: BOEING 737-800
(B738)
More flights by this aircraft type
Origin: KSFO San Francisco Intl
United States
Destination: KPDX Portland Intl
United States
More flights between these airports :: More routes between these airports
Route: +TRUKN2 GRTFL MACHU TMBRS2
File this flight plan on PilotEdge
Remarks:
Altitude:
(Current/Filed)
380ft
Speed:
(Current/Filed)
447kts
Departed: 12-Jun-18 04:52 PM
Arrived: 12-Jun-18 06:10 PM
Distance/Time
Traveled:
478nm/1:18
Distance/Time
To Go:
Arrived

Flight Plot

Page will automatically refresh every two minutes.


Map Options




Map Legend


Flown Route
Filed Route
Departure Airport
Arrival Airport
Navaid (VOR, NDB)
Fix

Horizontal Profiles

Position Reports

Time Latitude Longitude Heading Altitude Ground
Speed
12-Jun-18 16:18 37.612830 -122.383164 296 21ft 0kts
12-Jun-18 16:19 37.612830 -122.383164 296 21ft 0kts
12-Jun-18 16:20 37.612830 -122.383164 296 21ft 0kts
12-Jun-18 16:21 37.612830 -122.383164 296 21ft 0kts
12-Jun-18 16:22 37.612830 -122.383164 296 21ft 0kts
12-Jun-18 16:23 37.612830 -122.383164 296 21ft 0kts
12-Jun-18 16:24 37.612830 -122.383164 296 21ft 0kts
12-Jun-18 16:25 37.612830 -122.383164 296 21ft 0kts
12-Jun-18 16:26 37.612830 -122.383164 296 21ft 0kts
12-Jun-18 16:27 37.612830 -122.383164 296 21ft 0kts
12-Jun-18 16:28 37.612830 -122.383164 296 21ft 0kts
12-Jun-18 16:29 37.612830 -122.383164 296 21ft 0kts
12-Jun-18 16:30 37.612830 -122.383164 296 21ft 0kts
12-Jun-18 16:31 37.612830 -122.383164 296 21ft 0kts
12-Jun-18 16:32 37.612830 -122.383164 296 21ft 0kts
12-Jun-18 16:33 37.612830 -122.383164 296 21ft 0kts
12-Jun-18 16:34 37.612830 -122.383164 296 21ft 0kts
12-Jun-18 16:35 37.612830 -122.383164 296 21ft 0kts
12-Jun-18 16:36 37.612830 -122.383164 296 21ft 0kts
12-Jun-18 16:37 37.612830 -122.383164 296 21ft 0kts
12-Jun-18 16:38 37.612830 -122.383164 296 21ft 0kts
12-Jun-18 16:39 37.612830 -122.383164 296 21ft 0kts
12-Jun-18 16:40 37.612830 -122.383164 296 21ft 0kts
12-Jun-18 16:41 37.612830 -122.383164 296 21ft 0kts
12-Jun-18 16:42 37.612807 -122.383107 296 21ft 2kts
12-Jun-18 16:43 37.612528 -122.382484 333 21ft 2kts
12-Jun-18 16:44 37.612195 -122.382548 43 21ft 1kts
12-Jun-18 16:45 37.612080 -122.382565 281 21ft 0kts
12-Jun-18 16:46 37.612081 -122.382569 282 21ft 0kts
12-Jun-18 16:47 37.614671 -122.380938 26 21ft 21kts
12-Jun-18 16:48 37.617345 -122.375607 114 21ft 21kts
12-Jun-18 16:49 37.614269 -122.368656 132 21ft 23kts
12-Jun-18 16:50 37.610959 -122.361368 117 21ft 19kts
12-Jun-18 16:51 37.610997 -122.359032 30 21ft 2kts
12-Jun-18 16:52 37.616975 -122.370899 297 21ft 141kts
12-Jun-18 16:53 37.657299 -122.391196 25 2087ft 242kts
12-Jun-18 16:54 37.687988 -122.321681 69 4918ft 266kts
12-Jun-18 16:55 37.716090 -122.236755 42 7562ft 292kts
12-Jun-18 16:56 37.792565 -122.216371 358 10471ft 303kts
12-Jun-18 16:57 37.882835 -122.218724 358 12762ft 338kts
12-Jun-18 16:58 37.978879 -122.221247 358 15410ft 354kts
12-Jun-18 16:59 38.078675 -122.223872 357 17885ft 368kts
12-Jun-18 17:00 38.160170 -122.226032 357 18866ft 373kts
12-Jun-18 17:01 38.262451 -122.228736 357 20605ft 380kts
12-Jun-18 17:02 38.369694 -122.232023 354 22641ft 393kts
12-Jun-18 17:03 38.479646 -122.243567 353 23841ft 400kts
12-Jun-18 17:04 38.591478 -122.255673 353 25692ft 410kts
12-Jun-18 17:05 38.705905 -122.268078 353 27353ft 420kts
12-Jun-18 17:06 38.822801 -122.280756 353 28893ft 429kts
12-Jun-18 17:07 38.941607 -122.293619 352 30619ft 429kts
12-Jun-18 17:08 39.054599 -122.305864 351 32233ft 424kts
12-Jun-18 17:09 39.158858 -122.317199 351 33574ft 419kts
12-Jun-18 17:10 39.274361 -122.329764 350 34853ft 416kts
12-Jun-18 17:11 39.388925 -122.342231 350 35944ft 413kts
12-Jun-18 17:12 39.501517 -122.354484 350 36838ft 412kts
12-Jun-18 17:13 39.615173 -122.366852 351 37609ft 412kts
12-Jun-18 17:14 39.730237 -122.379425 351 37819ft 428kts
12-Jun-18 17:15 39.851376 -122.392652 351 37824ft 450kts
12-Jun-18 17:16 39.973300 -122.405863 351 37814ft 451kts
12-Jun-18 17:17 40.098017 -122.419391 351 37815ft 452kts
12-Jun-18 17:18 40.212851 -122.431859 351 37812ft 451kts
12-Jun-18 17:19 40.335631 -122.445203 351 37805ft 451kts
12-Jun-18 17:20 40.456110 -122.458306 351 37804ft 452kts
12-Jun-18 17:21 40.580761 -122.471867 351 37805ft 451kts
12-Jun-18 17:22 40.705391 -122.485431 351 37805ft 452kts
12-Jun-18 17:23 40.830334 -122.499033 351 37805ft 451kts
12-Jun-18 17:24 40.954992 -122.512608 351 37806ft 451kts
12-Jun-18 17:25 41.075350 -122.525667 351 37857ft 443kts
12-Jun-18 17:26 41.175416 -122.536536 351 37920ft 439kts
12-Jun-18 17:27 41.297067 -122.549798 350 37975ft 439kts
12-Jun-18 17:28 41.418519 -122.563038 351 37977ft 440kts
12-Jun-18 17:29 41.539834 -122.575929 352 37978ft 440kts
12-Jun-18 17:30 41.659563 -122.583866 352 37975ft 441kts
12-Jun-18 17:31 41.781437 -122.591797 352 37976ft 440kts
12-Jun-18 17:32 41.897923 -122.599410 352 37975ft 441kts
12-Jun-18 17:33 42.018378 -122.607310 352 37977ft 441kts
12-Jun-18 17:34 42.128456 -122.614558 352 37976ft 441kts
12-Jun-18 17:35 42.249664 -122.622589 352 37961ft 441kts
12-Jun-18 17:36 42.363954 -122.630206 352 37958ft 441kts
12-Jun-18 17:37 42.486030 -122.638373 352 37958ft 440kts
12-Jun-18 17:38 42.607843 -122.646558 352 37959ft 441kts
12-Jun-18 17:39 42.726618 -122.654586 352 37965ft 440kts
12-Jun-18 17:40 42.848549 -122.662883 352 37964ft 440kts
12-Jun-18 17:41 42.970108 -122.671133 350 37966ft 440kts
12-Jun-18 17:42 43.093008 -122.679531 349 36772ft 441kts
12-Jun-18 17:43 43.206239 -122.687237 349 35852ft 435kts
12-Jun-18 17:44 43.327794 -122.695722 349 35909ft 439kts
12-Jun-18 17:45 43.449586 -122.704146 349 35566ft 444kts
12-Jun-18 17:46 43.571031 -122.712481 349 34121ft 443kts
12-Jun-18 17:47 43.694186 -122.721104 350 32261ft 448kts
12-Jun-18 17:48 43.819276 -122.729908 350 30410ft 457kts
12-Jun-18 17:49 43.946495 -122.738880 351 28558ft 465kts
12-Jun-18 17:50 44.075333 -122.747969 351 26689ft 472kts
12-Jun-18 17:51 44.189992 -122.750951 359 24970ft 482kts
12-Jun-18 17:52 44.323610 -122.737503 359 22984ft 474kts
12-Jun-18 17:53 44.447983 -122.724729 0 20939ft 429kts
12-Jun-18 17:54 44.558351 -122.713440 0 18914ft 385kts
12-Jun-18 17:55 44.661340 -122.703016 0 17544ft 372kts
12-Jun-18 17:56 44.762661 -122.692738 0 16146ft 362kts
12-Jun-18 17:57 44.859250 -122.682952 1 14797ft 355kts
12-Jun-18 17:58 44.951721 -122.673554 1 13174ft 334kts
12-Jun-18 17:59 45.040589 -122.664460 1 11498ft 320kts
12-Jun-18 18:00 45.123219 -122.652682 18 9897ft 319kts
12-Jun-18 18:01 45.201858 -122.600575 24 8262ft 316kts
12-Jun-18 18:02 45.277697 -122.548464 24 6710ft 291kts
12-Jun-18 18:03 45.346202 -122.499748 24 5334ft 273kts
12-Jun-18 18:04 45.410214 -122.453387 24 3897ft 257kts
12-Jun-18 18:05 45.472358 -122.422314 0 2409ft 212kts
12-Jun-18 18:06 45.517179 -122.456727 318 1589ft 176kts
12-Jun-18 18:07 45.544424 -122.498773 306 836ft 140kts
12-Jun-18 18:08 45.564943 -122.544846 300 565ft 140kts
12-Jun-18 18:09 45.582766 -122.589954 301 37ft 128kts
12-Jun-18 18:10 45.588742 -122.601605 129 37ft 7kts
12-Jun-18 18:11 45.588529 -122.601220 123 37ft 6kts
12-Jun-18 18:12 45.588964 -122.600283 298 37ft 8kts
12-Jun-18 18:13 45.591343 -122.599497 98 37ft 20kts
12-Jun-18 18:14 45.590291 -122.598326 209 37ft 0kts
12-Jun-18 18:15 45.590291 -122.598326 209 37ft 0kts
12-Jun-18 18:16 45.590291 -122.598326 209 37ft 0kts
12-Jun-18 18:17 45.590291 -122.598326 209 37ft 0kts
12-Jun-18 18:18 45.590291 -122.598326 209 37ft 0kts
12-Jun-18 18:19 45.590291 -122.598326 209 37ft 0kts
12-Jun-18 18:20 45.590291 -122.598326 209 37ft 0kts
12-Jun-18 18:21 45.590291 -122.598326 209 37ft 0kts
12-Jun-18 18:22 45.590291 -122.598326 209 37ft 0kts
12-Jun-18 18:23 45.590291 -122.598326 209 37ft 0kts
12-Jun-18 18:24 45.590291 -122.598326 209 37ft 0kts

Navigation Log

Ident Type
Flight plan parsing failed, navigation log unavailable